Pti Danube — VRQD9 — position and weather

sailwx.info

Track history (hours):
 
Tides and Currents Weather Stations Pressure Air Temp Water Temp Dewpoint Dewpoint Depression Visibility Wind Speed Wind Dir Waves Ship Positions

Pti Danube

Last reported at 2018-Jun-19 00:50 UTC. Time now 2018-Jun-20 11:38 UTC.
Position S 32°59' W 071°53'.

Length 183 m; draft 8.6 m.

Type: Tanker. MMSI: 477043600.

Date/timePositionNaut miles runAvg speedWind from/ knotsBaromVisibWave heightAir tempDewpointWater temp
2018-Jun-19 00:50S 32°59' W 071°53'512.5
2018-Jun-19 00:28S 32°56' W 071°50'613.0
2018-Jun-19 00:00S 32°51' W 071°45'713.2
2018-Jun-18 23:30S 32°46' W 071°40'611.5
2018-Jun-18 23:00S 32°44' W 071°33'3 0.1
2018-Jun-17 18:35S 32°45' W 071°30'0 0.0
2018-Jun-17 18:26S 32°46' W 071°30'0 0.0
2018-Jun-17 17:47S 32°46' W 071°30'0 0.0
2018-Jun-17 16:47S 32°46' W 071°30'0 0.1
2018-Jun-17 16:29S 32°46' W 071°30'0 0.0
2018-Jun-17 15:59S 32°46' W 071°30'0 0.0
2018-Jun-17 15:29S 32°45' W 071°30'0 0.0
2018-Jun-17 14:59S 32°46' W 071°30'0 0.0
2018-Jun-17 14:29S 32°45' W 071°30'0 0.1
2018-Jun-17 13:59S 32°46' W 071°30'0 0.0
2018-Jun-17 13:29S 32°46' W 071°30'0 0.1
2018-Jun-17 12:59S 32°45' W 071°30'0 0.0
2018-Jun-17 12:29S 32°45' W 071°30'0 0.0
2018-Jun-17 11:56S 32°45' W 071°30'0 0.0
2018-Jun-17 11:29S 32°46' W 071°30'0 0.0
2018-Jun-17 09:08S 32°45' W 071°30'0 0.0
2018-Jun-16 21:29S 32°46' W 071°30'0 0.1
2018-Jun-16 20:56S 32°45' W 071°30'0 0.0
2018-Jun-16 20:23S 32°45' W 071°30'0 0.0
2018-Jun-16 19:29S 32°45' W 071°30'0 0.0
2018-Jun-16 18:53S 32°45' W 071°30'0 0.1
2018-Jun-16 18:23S 32°46' W 071°30'0 0.0
2018-Jun-16 17:50S 32°45' W 071°30'0 0.0
2018-Jun-16 17:29S 32°45' W 071°30'0 0.0
2018-Jun-16 16:20S 32°45' W 071°30'0 0.0
2018-Jun-16 14:11S 32°45' W 071°30'0 0.0
2018-Jun-16 13:02S 32°45' W 071°30'0 0.1
2018-Jun-16 12:56S 32°45' W 071°30'0 0.0
2018-Jun-16 03:11S 32°45' W 071°30'0 1.1
2018-Jun-16 02:59S 32°45' W 071°30'1 2.6
2018-Jun-16 02:29S 32°45' W 071°32'2 3.2
2018-Jun-16 01:52S 32°46' W 071°34'0 1.1
2018-Jun-16 01:30S 32°45' W 071°34'1 1.3
2018-Jun-16 00:58S 32°45' W 071°34'0 0.9
2018-Jun-16 00:26S 32°45' W 071°33'2 3.8
2018-Jun-15 23:58S 32°45' W 071°35'2 4.4
2018-Jun-15 23:30S 32°46' W 071°37'0 0.2
2018-Jun-15 23:00S 32°46' W 071°37'2 3.1
2018-Jun-15 22:30S 32°45' W 071°39'3 3.6
2018-Jun-15 21:48S 32°44' W 071°41'511.2
2018-Jun-15 21:18S 32°38' W 071°43'  
Track history (hours):
 
Tides and Currents Weather Stations Pressure Air Temp Water Temp Dewpoint Dewpoint Depression Visibility Wind Speed Wind Dir Waves Ship Positions

Pti Danube

Last reported at 2018-Jun-19 00:50 UTC. Time now 2018-Jun-20 11:38 UTC.
Position S 32°59' W 071°53'.

Length 183 m; draft 8.6 m.

Type: Tanker. MMSI: 477043600.

Date/timePositionNaut miles runAvg speedWind from/ knotsBaromVisibWave heightAir tempDewpointWater temp
2018-Jun-19 00:50S 32°59' W 071°53'512.5
2018-Jun-19 00:28S 32°56' W 071°50'613.0
2018-Jun-19 00:00S 32°51' W 071°45'713.2
2018-Jun-18 23:30S 32°46' W 071°40'611.5
2018-Jun-18 23:00S 32°44' W 071°33'3 0.1
2018-Jun-17 18:35S 32°45' W 071°30'0 0.0
2018-Jun-17 18:26S 32°46' W 071°30'0 0.0
2018-Jun-17 17:47S 32°46' W 071°30'0 0.0
2018-Jun-17 16:47S 32°46' W 071°30'0 0.1
2018-Jun-17 16:29S 32°46' W 071°30'0 0.0
2018-Jun-17 15:59S 32°46' W 071°30'0 0.0
2018-Jun-17 15:29S 32°45' W 071°30'0 0.0
2018-Jun-17 14:59S 32°46' W 071°30'0 0.0
2018-Jun-17 14:29S 32°45' W 071°30'0 0.1
2018-Jun-17 13:59S 32°46' W 071°30'0 0.0
2018-Jun-17 13:29S 32°46' W 071°30'0 0.1
2018-Jun-17 12:59S 32°45' W 071°30'0 0.0
2018-Jun-17 12:29S 32°45' W 071°30'0 0.0
2018-Jun-17 11:56S 32°45' W 071°30'0 0.0
2018-Jun-17 11:29S 32°46' W 071°30'0 0.0
2018-Jun-17 09:08S 32°45' W 071°30'0 0.0
2018-Jun-16 21:29S 32°46' W 071°30'0 0.1
2018-Jun-16 20:56S 32°45' W 071°30'0 0.0
2018-Jun-16 20:23S 32°45' W 071°30'0 0.0
2018-Jun-16 19:29S 32°45' W 071°30'0 0.0
2018-Jun-16 18:53S 32°45' W 071°30'0 0.1
2018-Jun-16 18:23S 32°46' W 071°30'0 0.0
2018-Jun-16 17:50S 32°45' W 071°30'0 0.0
2018-Jun-16 17:29S 32°45' W 071°30'0 0.0
2018-Jun-16 16:20S 32°45' W 071°30'0 0.0
2018-Jun-16 14:11S 32°45' W 071°30'0 0.0
2018-Jun-16 13:02S 32°45' W 071°30'0 0.1
2018-Jun-16 12:56S 32°45' W 071°30'0 0.0
2018-Jun-16 03:11S 32°45' W 071°30'0 1.1
2018-Jun-16 02:59S 32°45' W 071°30'1 2.6
2018-Jun-16 02:29S 32°45' W 071°32'2 3.2
2018-Jun-16 01:52S 32°46' W 071°34'0 1.1
2018-Jun-16 01:30S 32°45' W 071°34'1 1.3
2018-Jun-16 00:58S 32°45' W 071°34'0 0.9
2018-Jun-16 00:26S 32°45' W 071°33'2 3.8
2018-Jun-15 23:58S 32°45' W 071°35'2 4.4
2018-Jun-15 23:30S 32°46' W 071°37'0 0.2
2018-Jun-15 23:00S 32°46' W 071°37'2 3.1
2018-Jun-15 22:30S 32°45' W 071°39'3 3.6
2018-Jun-15 21:48S 32°44' W 071°41'511.2
2018-Jun-15 21:18S 32°38' W 071°43'  

Dump ship's entire track history